sensor_id;sensor_type;location;lat;lon;timestamp;P1;durP1;ratioP1;P2;durP2;ratioP2
67757;SDS011;54562;47.620;18.786;2023-08-20T00:01:13;11.20;;;7.60;;
67757;SDS011;54562;47.620;18.786;2023-08-20T00:04:22;10.10;;;7.60;;
67757;SDS011;54562;47.620;18.786;2023-08-20T00:07:32;11.40;;;8.20;;
67757;SDS011;54562;47.620;18.786;2023-08-20T00:10:40;11.30;;;8.10;;
67757;SDS011;54562;47.620;18.786;2023-08-20T00:13:47;10.10;;;8.30;;
67757;SDS011;54562;47.620;18.786;2023-08-20T00:16:54;11.70;;;8.30;;
67757;SDS011;54562;47.620;18.786;2023-08-20T00:20:01;9.50;;;7.80;;
67757;SDS011;54562;47.620;18.786;2023-08-20T00:23:13;10.90;;;8.20;;
67757;SDS011;54562;47.620;18.786;2023-08-20T00:26:21;10.70;;;8.00;;
67757;SDS011;54562;47.620;18.786;2023-08-20T00:29:28;11.80;;;8.20;;
67757;SDS011;54562;47.620;18.786;2023-08-20T00:32:34;11.60;;;7.90;;
67757;SDS011;54562;47.620;18.786;2023-08-20T00:35:41;10.70;;;8.20;;
67757;SDS011;54562;47.620;18.786;2023-08-20T00:38:47;11.20;;;8.10;;
67757;SDS011;54562;47.620;18.786;2023-08-20T00:41:54;10.60;;;8.10;;
67757;SDS011;54562;47.620;18.786;2023-08-20T00:45:01;11.50;;;8.50;;
67757;SDS011;54562;47.620;18.786;2023-08-20T00:48:08;11.30;;;8.20;;
67757;SDS011;54562;47.620;18.786;2023-08-20T00:51:15;10.60;;;8.30;;
67757;SDS011;54562;47.620;18.786;2023-08-20T00:54:22;11.20;;;8.10;;
67757;SDS011;54562;47.620;18.786;2023-08-20T00:57:28;11.10;;;8.50;;
67757;SDS011;54562;47.620;18.786;2023-08-20T01:00:35;12.90;;;8.60;;
67757;SDS011;54562;47.620;18.786;2023-08-20T01:03:42;12.00;;;8.80;;
67757;SDS011;54562;47.620;18.786;2023-08-20T01:06:50;12.40;;;8.80;;
67757;SDS011;54562;47.620;18.786;2023-08-20T01:10:02;12.30;;;8.20;;
67757;SDS011;54562;47.620;18.786;2023-08-20T01:13:12;12.20;;;8.70;;
67757;SDS011;54562;47.620;18.786;2023-08-20T01:16:19;11.00;;;8.70;;
67757;SDS011;54562;47.620;18.786;2023-08-20T01:19:26;10.70;;;8.60;;
67757;SDS011;54562;47.620;18.786;2023-08-20T01:22:45;12.00;;;9.00;;
67757;SDS011;54562;47.620;18.786;2023-08-20T01:26:06;11.20;;;8.40;;
67757;SDS011;54562;47.620;18.786;2023-08-20T01:29:16;11.70;;;8.90;;
67757;SDS011;54562;47.620;18.786;2023-08-20T01:32:22;14.30;;;9.20;;
67757;SDS011;54562;47.620;18.786;2023-08-20T01:35:29;12.00;;;9.20;;
67757;SDS011;54562;47.620;18.786;2023-08-20T01:38:36;11.30;;;8.60;;
67757;SDS011;54562;47.620;18.786;2023-08-20T01:41:42;13.10;;;8.50;;
67757;SDS011;54562;47.620;18.786;2023-08-20T01:44:49;12.10;;;9.60;;
67757;SDS011;54562;47.620;18.786;2023-08-20T01:47:55;13.10;;;9.80;;
67757;SDS011;54562;47.620;18.786;2023-08-20T01:51:02;13.00;;;9.60;;
67757;SDS011;54562;47.620;18.786;2023-08-20T01:54:09;13.90;;;9.60;;
67757;SDS011;54562;47.620;18.786;2023-08-20T01:57:16;13.30;;;9.60;;
67757;SDS011;54562;47.620;18.786;2023-08-20T02:00:22;14.10;;;9.50;;
67757;SDS011;54562;47.620;18.786;2023-08-20T02:03:29;12.50;;;10.00;;
67757;SDS011;54562;47.620;18.786;2023-08-20T02:06:35;13.50;;;10.60;;
67757;SDS011;54562;47.620;18.786;2023-08-20T02:09:41;12.50;;;9.50;;
67757;SDS011;54562;47.620;18.786;2023-08-20T02:12:48;17.30;;;10.30;;
67757;SDS011;54562;47.620;18.786;2023-08-20T02:15:58;15.30;;;9.90;;
67757;SDS011;54562;47.620;18.786;2023-08-20T02:19:05;14.30;;;10.40;;
67757;SDS011;54562;47.620;18.786;2023-08-20T02:22:12;13.90;;;9.60;;
67757;SDS011;54562;47.620;18.786;2023-08-20T02:25:18;13.80;;;10.60;;
67757;SDS011;54562;47.620;18.786;2023-08-20T02:28:25;15.40;;;10.80;;
67757;SDS011;54562;47.620;18.786;2023-08-20T02:31:31;14.10;;;10.30;;
67757;SDS011;54562;47.620;18.786;2023-08-20T02:34:37;14.60;;;10.70;;
67757;SDS011;54562;47.620;18.786;2023-08-20T02:37:43;13.80;;;10.50;;
67757;SDS011;54562;47.620;18.786;2023-08-20T02:40:50;12.70;;;10.50;;
67757;SDS011;54562;47.620;18.786;2023-08-20T02:43:56;15.50;;;10.90;;
67757;SDS011;54562;47.620;18.786;2023-08-20T02:47:03;15.60;;;11.10;;
67757;SDS011;54562;47.620;18.786;2023-08-20T02:50:10;14.20;;;10.90;;
67757;SDS011;54562;47.620;18.786;2023-08-20T02:53:16;14.50;;;10.70;;
67757;SDS011;54562;47.620;18.786;2023-08-20T02:56:23;15.40;;;11.30;;
67757;SDS011;54562;47.620;18.786;2023-08-20T02:59:29;14.30;;;11.00;;
67757;SDS011;54562;47.620;18.786;2023-08-20T03:02:36;13.50;;;10.40;;
67757;SDS011;54562;47.620;18.786;2023-08-20T03:05:43;13.50;;;10.60;;
67757;SDS011;54562;47.620;18.786;2023-08-20T03:08:49;14.00;;;10.80;;
67757;SDS011;54562;47.620;18.786;2023-08-20T03:11:56;14.60;;;11.00;;
67757;SDS011;54562;47.620;18.786;2023-08-20T03:15:02;13.90;;;10.90;;
67757;SDS011;54562;47.620;18.786;2023-08-20T03:18:09;18.00;;;11.30;;
67757;SDS011;54562;47.620;18.786;2023-08-20T03:21:16;15.40;;;11.00;;
67757;SDS011;54562;47.620;18.786;2023-08-20T03:24:23;14.10;;;10.20;;
67757;SDS011;54562;47.620;18.786;2023-08-20T03:27:29;15.10;;;10.90;;
67757;SDS011;54562;47.620;18.786;2023-08-20T03:30:37;16.30;;;11.60;;
67757;SDS011;54562;47.620;18.786;2023-08-20T03:33:43;14.00;;;11.40;;
67757;SDS011;54562;47.620;18.786;2023-08-20T03:36:50;17.80;;;11.80;;
67757;SDS011;54562;47.620;18.786;2023-08-20T03:39:56;14.70;;;11.90;;
67757;SDS011;54562;47.620;18.786;2023-08-20T03:43:02;16.20;;;11.60;;
67757;SDS011;54562;47.620;18.786;2023-08-20T03:46:09;15.00;;;11.40;;
67757;SDS011;54562;47.620;18.786;2023-08-20T03:49:16;18.60;;;11.30;;
67757;SDS011;54562;47.620;18.786;2023-08-20T03:52:22;14.90;;;11.80;;
67757;SDS011;54562;47.620;18.786;2023-08-20T03:55:29;15.10;;;11.10;;
67757;SDS011;54562;47.620;18.786;2023-08-20T03:58:35;13.70;;;11.10;;
67757;SDS011;54562;47.620;18.786;2023-08-20T04:01:42;13.50;;;10.50;;
67757;SDS011;54562;47.620;18.786;2023-08-20T04:04:48;14.60;;;10.30;;
67757;SDS011;54562;47.620;18.786;2023-08-20T04:07:54;15.00;;;10.50;;
67757;SDS011;54562;47.620;18.786;2023-08-20T04:11:00;15.00;;;11.40;;
67757;SDS011;54562;47.620;18.786;2023-08-20T04:14:07;14.00;;;10.70;;
67757;SDS011;54562;47.620;18.786;2023-08-20T04:17:13;13.30;;;10.80;;
67757;SDS011;54562;47.620;18.786;2023-08-20T04:20:19;15.20;;;10.90;;
67757;SDS011;54562;47.620;18.786;2023-08-20T04:23:26;16.70;;;11.90;;
67757;SDS011;54562;47.620;18.786;2023-08-20T04:26:33;14.80;;;11.60;;
67757;SDS011;54562;47.620;18.786;2023-08-20T04:29:39;13.40;;;11.80;;
67757;SDS011;54562;47.620;18.786;2023-08-20T04:32:45;15.70;;;11.80;;
67757;SDS011;54562;47.620;18.786;2023-08-20T04:35:51;15.10;;;11.80;;
67757;SDS011;54562;47.620;18.786;2023-08-20T04:38:58;17.60;;;12.70;;
67757;SDS011;54562;47.620;18.786;2023-08-20T04:42:05;15.00;;;12.10;;
67757;SDS011;54562;47.620;18.786;2023-08-20T04:45:11;16.20;;;11.70;;
67757;SDS011;54562;47.620;18.786;2023-08-20T04:48:20;16.70;;;12.10;;
67757;SDS011;54562;47.620;18.786;2023-08-20T04:51:26;14.70;;;11.90;;
67757;SDS011;54562;47.620;18.786;2023-08-20T04:54:33;15.70;;;11.70;;
67757;SDS011;54562;47.620;18.786;2023-08-20T04:57:39;14.10;;;11.10;;
67757;SDS011;54562;47.620;18.786;2023-08-20T05:00:45;16.00;;;12.00;;
67757;SDS011;54562;47.620;18.786;2023-08-20T05:03:51;15.90;;;11.90;;
67757;SDS011;54562;47.620;18.786;2023-08-20T05:06:58;15.40;;;11.60;;
67757;SDS011;54562;47.620;18.786;2023-08-20T05:10:05;14.40;;;11.20;;
67757;SDS011;54562;47.620;18.786;2023-08-20T05:13:12;14.00;;;11.10;;
67757;SDS011;54562;47.620;18.786;2023-08-20T05:16:18;15.10;;;11.20;;
67757;SDS011;54562;47.620;18.786;2023-08-20T05:19:25;13.30;;;10.80;;
67757;SDS011;54562;47.620;18.786;2023-08-20T05:22:31;14.40;;;11.30;;
67757;SDS011;54562;47.620;18.786;2023-08-20T05:25:38;15.90;;;10.90;;
67757;SDS011;54562;47.620;18.786;2023-08-20T05:28:45;13.70;;;10.70;;
67757;SDS011;54562;47.620;18.786;2023-08-20T05:31:51;16.60;;;10.60;;
67757;SDS011;54562;47.620;18.786;2023-08-20T05:34:57;13.70;;;10.50;;
67757;SDS011;54562;47.620;18.786;2023-08-20T05:38:04;13.30;;;9.70;;
67757;SDS011;54562;47.620;18.786;2023-08-20T05:41:10;12.70;;;9.60;;
67757;SDS011;54562;47.620;18.786;2023-08-20T05:44:16;14.70;;;10.50;;
67757;SDS011;54562;47.620;18.786;2023-08-20T05:47:23;12.80;;;9.60;;
67757;SDS011;54562;47.620;18.786;2023-08-20T05:50:29;13.50;;;10.10;;
67757;SDS011;54562;47.620;18.786;2023-08-20T05:53:35;12.70;;;10.10;;
67757;SDS011;54562;47.620;18.786;2023-08-20T05:56:42;13.70;;;10.40;;
67757;SDS011;54562;47.620;18.786;2023-08-20T05:59:48;12.30;;;10.20;;
67757;SDS011;54562;47.620;18.786;2023-08-20T06:02:54;12.70;;;9.90;;
67757;SDS011;54562;47.620;18.786;2023-08-20T06:06:01;13.20;;;10.00;;
67757;SDS011;54562;47.620;18.786;2023-08-20T06:09:11;12.40;;;10.10;;
67757;SDS011;54562;47.620;18.786;2023-08-20T06:12:17;16.10;;;10.40;;
67757;SDS011;54562;47.620;18.786;2023-08-20T06:15:24;12.30;;;9.60;;
67757;SDS011;54562;47.620;18.786;2023-08-20T06:18:30;11.90;;;9.00;;
67757;SDS011;54562;47.620;18.786;2023-08-20T06:21:37;11.80;;;9.40;;
67757;SDS011;54562;47.620;18.786;2023-08-20T06:24:43;13.40;;;9.10;;
67757;SDS011;54562;47.620;18.786;2023-08-20T06:27:50;11.10;;;8.30;;
67757;SDS011;54562;47.620;18.786;2023-08-20T06:30:56;10.90;;;8.70;;
67757;SDS011;54562;47.620;18.786;2023-08-20T06:34:03;11.40;;;8.90;;
67757;SDS011;54562;47.620;18.786;2023-08-20T06:37:09;12.00;;;8.90;;
67757;SDS011;54562;47.620;18.786;2023-08-20T06:40:15;11.70;;;8.30;;
67757;SDS011;54562;47.620;18.786;2023-08-20T06:43:22;12.70;;;8.70;;
67757;SDS011;54562;47.620;18.786;2023-08-20T06:46:29;11.60;;;8.70;;
67757;SDS011;54562;47.620;18.786;2023-08-20T06:49:36;11.20;;;8.40;;
67757;SDS011;54562;47.620;18.786;2023-08-20T06:52:42;10.90;;;8.30;;
67757;SDS011;54562;47.620;18.786;2023-08-20T06:55:48;12.10;;;9.00;;
67757;SDS011;54562;47.620;18.786;2023-08-20T06:58:54;10.70;;;9.00;;
67757;SDS011;54562;47.620;18.786;2023-08-20T07:02:01;12.60;;;8.50;;
67757;SDS011;54562;47.620;18.786;2023-08-20T07:05:08;11.90;;;9.00;;
67757;SDS011;54562;47.620;18.786;2023-08-20T07:08:14;11.00;;;9.40;;
67757;SDS011;54562;47.620;18.786;2023-08-20T07:11:21;11.90;;;9.20;;
67757;SDS011;54562;47.620;18.786;2023-08-20T07:14:27;10.40;;;8.50;;
67757;SDS011;54562;47.620;18.786;2023-08-20T07:17:34;12.70;;;9.30;;
67757;SDS011;54562;47.620;18.786;2023-08-20T07:20:41;11.80;;;9.80;;
67757;SDS011;54562;47.620;18.786;2023-08-20T07:23:48;12.30;;;9.60;;
67757;SDS011;54562;47.620;18.786;2023-08-20T07:26:54;12.10;;;10.20;;
67757;SDS011;54562;47.620;18.786;2023-08-20T07:30:05;13.80;;;9.90;;
67757;SDS011;54562;47.620;18.786;2023-08-20T07:33:13;12.40;;;10.10;;
67757;SDS011;54562;47.620;18.786;2023-08-20T07:36:19;13.70;;;10.50;;
67757;SDS011;54562;47.620;18.786;2023-08-20T07:39:26;12.30;;;9.50;;
67757;SDS011;54562;47.620;18.786;2023-08-20T07:42:32;14.80;;;10.40;;
67757;SDS011;54562;47.620;18.786;2023-08-20T07:45:38;13.90;;;10.40;;
67757;SDS011;54562;47.620;18.786;2023-08-20T07:48:45;13.50;;;10.00;;
67757;SDS011;54562;47.620;18.786;2023-08-20T07:51:51;11.90;;;9.70;;
67757;SDS011;54562;47.620;18.786;2023-08-20T07:54:59;12.20;;;9.70;;
67757;SDS011;54562;47.620;18.786;2023-08-20T07:58:06;11.80;;;9.50;;
67757;SDS011;54562;47.620;18.786;2023-08-20T08:01:13;12.60;;;9.80;;
67757;SDS011;54562;47.620;18.786;2023-08-20T08:04:20;13.90;;;9.50;;
67757;SDS011;54562;47.620;18.786;2023-08-20T08:07:26;11.40;;;9.50;;
67757;SDS011;54562;47.620;18.786;2023-08-20T08:10:32;15.60;;;9.10;;
67757;SDS011;54562;47.620;18.786;2023-08-20T08:13:39;12.80;;;9.70;;
67757;SDS011;54562;47.620;18.786;2023-08-20T08:16:45;11.90;;;9.80;;
67757;SDS011;54562;47.620;18.786;2023-08-20T08:19:52;14.20;;;9.60;;
67757;SDS011;54562;47.620;18.786;2023-08-20T08:22:58;11.00;;;9.20;;
67757;SDS011;54562;47.620;18.786;2023-08-20T08:26:05;12.00;;;9.60;;
67757;SDS011;54562;47.620;18.786;2023-08-20T08:29:11;12.30;;;9.30;;
67757;SDS011;54562;47.620;18.786;2023-08-20T08:32:18;11.50;;;9.20;;
67757;SDS011;54562;47.620;18.786;2023-08-20T08:35:24;11.10;;;9.50;;
67757;SDS011;54562;47.620;18.786;2023-08-20T08:38:30;13.10;;;9.80;;
67757;SDS011;54562;47.620;18.786;2023-08-20T08:41:39;11.00;;;9.00;;
67757;SDS011;54562;47.620;18.786;2023-08-20T08:44:47;12.10;;;9.10;;
67757;SDS011;54562;47.620;18.786;2023-08-20T08:47:55;10.50;;;8.90;;
67757;SDS011;54562;47.620;18.786;2023-08-20T08:51:01;10.80;;;8.70;;
67757;SDS011;54562;47.620;18.786;2023-08-20T08:54:08;10.90;;;8.40;;
67757;SDS011;54562;47.620;18.786;2023-08-20T08:57:14;17.50;;;9.00;;
67757;SDS011;54562;47.620;18.786;2023-08-20T09:00:21;11.70;;;8.80;;
67757;SDS011;54562;47.620;18.786;2023-08-20T09:03:27;14.90;;;9.50;;
67757;SDS011;54562;47.620;18.786;2023-08-20T09:06:45;12.00;;;8.80;;
67757;SDS011;54562;47.620;18.786;2023-08-20T09:09:56;11.30;;;8.50;;
67757;SDS011;54562;47.620;18.786;2023-08-20T09:13:04;12.40;;;8.70;;
67757;SDS011;54562;47.620;18.786;2023-08-20T09:16:11;10.60;;;8.20;;
67757;SDS011;54562;47.620;18.786;2023-08-20T09:19:18;11.80;;;8.50;;
67757;SDS011;54562;47.620;18.786;2023-08-20T09:22:24;11.30;;;8.50;;
67757;SDS011;54562;47.620;18.786;2023-08-20T09:25:31;12.10;;;8.70;;
67757;SDS011;54562;47.620;18.786;2023-08-20T09:28:41;12.30;;;8.40;;
67757;SDS011;54562;47.620;18.786;2023-08-20T09:31:48;10.00;;;8.50;;
67757;SDS011;54562;47.620;18.786;2023-08-20T09:34:55;10.90;;;8.80;;
67757;SDS011;54562;47.620;18.786;2023-08-20T09:38:02;10.60;;;8.90;;
67757;SDS011;54562;47.620;18.786;2023-08-20T09:41:09;10.50;;;8.50;;
67757;SDS011;54562;47.620;18.786;2023-08-20T09:44:17;11.80;;;8.90;;
67757;SDS011;54562;47.620;18.786;2023-08-20T09:47:25;9.30;;;8.30;;
67757;SDS011;54562;47.620;18.786;2023-08-20T09:50:32;10.60;;;8.60;;
67757;SDS011;54562;47.620;18.786;2023-08-20T09:53:43;12.10;;;8.40;;
67757;SDS011;54562;47.620;18.786;2023-08-20T09:56:54;10.50;;;8.50;;
67757;SDS011;54562;47.620;18.786;2023-08-20T10:00:09;12.30;;;8.60;;
67757;SDS011;54562;47.620;18.786;2023-08-20T10:03:16;10.70;;;8.10;;
67757;SDS011;54562;47.620;18.786;2023-08-20T10:06:24;11.20;;;8.10;;
67757;SDS011;54562;47.620;18.786;2023-08-20T10:09:31;10.50;;;7.80;;
67757;SDS011;54562;47.620;18.786;2023-08-20T10:12:39;11.40;;;8.00;;
67757;SDS011;54562;47.620;18.786;2023-08-20T10:15:47;12.30;;;8.30;;
67757;SDS011;54562;47.620;18.786;2023-08-20T10:18:53;10.70;;;8.60;;
67757;SDS011;54562;47.620;18.786;2023-08-20T10:22:03;11.70;;;8.20;;
67757;SDS011;54562;47.620;18.786;2023-08-20T10:25:10;9.40;;;7.30;;
67757;SDS011;54562;47.620;18.786;2023-08-20T10:28:20;8.80;;;7.90;;
67757;SDS011;54562;47.620;18.786;2023-08-20T10:31:27;10.40;;;7.80;;
67757;SDS011;54562;47.620;18.786;2023-08-20T10:34:35;9.80;;;7.60;;
67757;SDS011;54562;47.620;18.786;2023-08-20T10:41:10;10.60;;;7.40;;
67757;SDS011;54562;47.620;18.786;2023-08-20T10:44:17;10.40;;;7.50;;
67757;SDS011;54562;47.620;18.786;2023-08-20T10:47:23;16.40;;;7.70;;
67757;SDS011;54562;47.620;18.786;2023-08-20T10:50:30;9.80;;;7.00;;
67757;SDS011;54562;47.620;18.786;2023-08-20T10:53:39;11.50;;;7.50;;
67757;SDS011;54562;47.620;18.786;2023-08-20T10:56:46;11.00;;;7.70;;
67757;SDS011;54562;47.620;18.786;2023-08-20T10:59:57;9.50;;;7.10;;
67757;SDS011;54562;47.620;18.786;2023-08-20T11:03:04;9.00;;;7.00;;
67757;SDS011;54562;47.620;18.786;2023-08-20T11:06:12;9.00;;;7.00;;
67757;SDS011;54562;47.620;18.786;2023-08-20T11:09:18;8.80;;;7.10;;
67757;SDS011;54562;47.620;18.786;2023-08-20T11:12:28;8.90;;;7.00;;
67757;SDS011;54562;47.620;18.786;2023-08-20T11:15:35;8.50;;;6.90;;
67757;SDS011;54562;47.620;18.786;2023-08-20T11:18:41;9.90;;;7.30;;
67757;SDS011;54562;47.620;18.786;2023-08-20T11:21:48;11.90;;;7.60;;
67757;SDS011;54562;47.620;18.786;2023-08-20T11:24:56;10.10;;;7.60;;
67757;SDS011;54562;47.620;18.786;2023-08-20T11:28:04;14.60;;;7.40;;
67757;SDS011;54562;47.620;18.786;2023-08-20T11:31:10;11.40;;;7.00;;
67757;SDS011;54562;47.620;18.786;2023-08-20T11:34:17;8.90;;;6.90;;
67757;SDS011;54562;47.620;18.786;2023-08-20T11:37:24;9.30;;;7.40;;
67757;SDS011;54562;47.620;18.786;2023-08-20T11:40:30;8.70;;;7.40;;
67757;SDS011;54562;47.620;18.786;2023-08-20T11:43:37;11.30;;;7.00;;
67757;SDS011;54562;47.620;18.786;2023-08-20T11:46:45;8.90;;;6.50;;
67757;SDS011;54562;47.620;18.786;2023-08-20T11:50:02;9.60;;;6.90;;
67757;SDS011;54562;47.620;18.786;2023-08-20T11:53:10;11.70;;;8.50;;
67757;SDS011;54562;47.620;18.786;2023-08-20T11:56:17;8.00;;;7.00;;
67757;SDS011;54562;47.620;18.786;2023-08-20T11:59:23;11.50;;;10.10;;
67757;SDS011;54562;47.620;18.786;2023-08-20T12:02:30;9.10;;;7.30;;
67757;SDS011;54562;47.620;18.786;2023-08-20T12:05:43;12.00;;;7.00;;
67757;SDS011;54562;47.620;18.786;2023-08-20T12:08:49;12.00;;;7.00;;
67757;SDS011;54562;47.620;18.786;2023-08-20T12:11:55;10.30;;;6.70;;
67757;SDS011;54562;47.620;18.786;2023-08-20T12:15:02;10.80;;;6.70;;
67757;SDS011;54562;47.620;18.786;2023-08-20T12:18:09;8.50;;;6.90;;
67757;SDS011;54562;47.620;18.786;2023-08-20T12:21:16;9.60;;;6.80;;
67757;SDS011;54562;47.620;18.786;2023-08-20T12:24:22;9.30;;;7.60;;
67757;SDS011;54562;47.620;18.786;2023-08-20T12:27:29;11.00;;;7.80;;
67757;SDS011;54562;47.620;18.786;2023-08-20T12:30:36;9.30;;;7.20;;
67757;SDS011;54562;47.620;18.786;2023-08-20T12:33:45;9.60;;;7.30;;
67757;SDS011;54562;47.620;18.786;2023-08-20T12:40:00;11.20;;;7.20;;
67757;SDS011;54562;47.620;18.786;2023-08-20T12:43:11;12.70;;;7.80;;
67757;SDS011;54562;47.620;18.786;2023-08-20T12:46:21;10.60;;;7.30;;
67757;SDS011;54562;47.620;18.786;2023-08-20T12:49:28;8.80;;;6.90;;
67757;SDS011;54562;47.620;18.786;2023-08-20T12:52:37;9.60;;;6.70;;
67757;SDS011;54562;47.620;18.786;2023-08-20T12:58:57;10.00;;;6.50;;
67757;SDS011;54562;47.620;18.786;2023-08-20T13:02:06;8.90;;;6.60;;
67757;SDS011;54562;47.620;18.786;2023-08-20T13:05:13;12.70;;;6.90;;
67757;SDS011;54562;47.620;18.786;2023-08-20T13:08:21;8.80;;;6.60;;
67757;SDS011;54562;47.620;18.786;2023-08-20T13:11:28;8.90;;;6.50;;
67757;SDS011;54562;47.620;18.786;2023-08-20T13:14:36;9.70;;;6.70;;
67757;SDS011;54562;47.620;18.786;2023-08-20T13:17:46;8.10;;;6.50;;
67757;SDS011;54562;47.620;18.786;2023-08-20T13:20:53;8.70;;;6.30;;
67757;SDS011;54562;47.620;18.786;2023-08-20T13:24:00;10.30;;;6.40;;
67757;SDS011;54562;47.620;18.786;2023-08-20T13:27:06;7.50;;;6.00;;
67757;SDS011;54562;47.620;18.786;2023-08-20T13:30:12;8.10;;;6.20;;
67757;SDS011;54562;47.620;18.786;2023-08-20T13:33:19;8.90;;;6.10;;
67757;SDS011;54562;47.620;18.786;2023-08-20T13:36:26;8.30;;;5.50;;
67757;SDS011;54562;47.620;18.786;2023-08-20T13:39:33;8.80;;;5.70;;
67757;SDS011;54562;47.620;18.786;2023-08-20T13:42:39;8.20;;;5.40;;
67757;SDS011;54562;47.620;18.786;2023-08-20T13:45:46;10.40;;;5.70;;
67757;SDS011;54562;47.620;18.786;2023-08-20T13:48:52;11.30;;;6.10;;
67757;SDS011;54562;47.620;18.786;2023-08-20T13:51:58;8.70;;;5.80;;
67757;SDS011;54562;47.620;18.786;2023-08-20T13:55:06;10.80;;;5.90;;
67757;SDS011;54562;47.620;18.786;2023-08-20T13:58:15;8.20;;;5.80;;
67757;SDS011;54562;47.620;18.786;2023-08-20T14:01:22;10.10;;;5.30;;
67757;SDS011;54562;47.620;18.786;2023-08-20T14:04:28;8.80;;;5.10;;
67757;SDS011;54562;47.620;18.786;2023-08-20T14:07:35;8.70;;;5.10;;
67757;SDS011;54562;47.620;18.786;2023-08-20T14:10:42;8.90;;;6.00;;
67757;SDS011;54562;47.620;18.786;2023-08-20T14:13:48;10.90;;;5.90;;
67757;SDS011;54562;47.620;18.786;2023-08-20T14:16:54;8.00;;;5.80;;
67757;SDS011;54562;47.620;18.786;2023-08-20T14:20:01;9.10;;;5.80;;
67757;SDS011;54562;47.620;18.786;2023-08-20T14:23:08;10.00;;;6.20;;
67757;SDS011;54562;47.620;18.786;2023-08-20T14:26:15;8.20;;;6.10;;
67757;SDS011;54562;47.620;18.786;2023-08-20T14:29:21;8.40;;;5.70;;
67757;SDS011;54562;47.620;18.786;2023-08-20T14:32:28;8.00;;;5.60;;
67757;SDS011;54562;47.620;18.786;2023-08-20T14:35:34;8.10;;;5.20;;
67757;SDS011;54562;47.620;18.786;2023-08-20T14:38:41;8.70;;;5.80;;
67757;SDS011;54562;47.620;18.786;2023-08-20T14:41:48;10.50;;;5.80;;
67757;SDS011;54562;47.620;18.786;2023-08-20T14:44:54;10.00;;;5.70;;
67757;SDS011;54562;47.620;18.786;2023-08-20T14:48:01;7.50;;;5.60;;
67757;SDS011;54562;47.620;18.786;2023-08-20T14:51:07;9.30;;;5.80;;
67757;SDS011;54562;47.620;18.786;2023-08-20T14:54:14;7.90;;;5.80;;
67757;SDS011;54562;47.620;18.786;2023-08-20T14:57:20;10.10;;;6.10;;
67757;SDS011;54562;47.620;18.786;2023-08-20T15:00:33;8.30;;;5.90;;
67757;SDS011;54562;47.620;18.786;2023-08-20T15:03:40;8.90;;;6.20;;
67757;SDS011;54562;47.620;18.786;2023-08-20T15:06:46;8.20;;;6.40;;
67757;SDS011;54562;47.620;18.786;2023-08-20T15:09:53;9.60;;;6.10;;
67757;SDS011;54562;47.620;18.786;2023-08-20T15:12:59;9.70;;;6.30;;
67757;SDS011;54562;47.620;18.786;2023-08-20T15:16:06;8.70;;;6.40;;
67757;SDS011;54562;47.620;18.786;2023-08-20T15:19:12;8.90;;;6.70;;
67757;SDS011;54562;47.620;18.786;2023-08-20T15:22:19;9.10;;;6.50;;
67757;SDS011;54562;47.620;18.786;2023-08-20T15:25:25;9.30;;;6.60;;
67757;SDS011;54562;47.620;18.786;2023-08-20T15:28:31;23.20;;;7.10;;
67757;SDS011;54562;47.620;18.786;2023-08-20T15:31:38;10.60;;;6.70;;
67757;SDS011;54562;47.620;18.786;2023-08-20T15:34:44;9.00;;;6.50;;
67757;SDS011;54562;47.620;18.786;2023-08-20T15:37:52;9.50;;;6.50;;
67757;SDS011;54562;47.620;18.786;2023-08-20T15:40:58;8.50;;;6.60;;
67757;SDS011;54562;47.620;18.786;2023-08-20T15:44:05;9.30;;;6.50;;
67757;SDS011;54562;47.620;18.786;2023-08-20T15:47:12;9.30;;;6.50;;
67757;SDS011;54562;47.620;18.786;2023-08-20T15:50:18;8.00;;;6.30;;
67757;SDS011;54562;47.620;18.786;2023-08-20T15:53:24;9.50;;;6.50;;
67757;SDS011;54562;47.620;18.786;2023-08-20T15:56:30;9.70;;;6.50;;
67757;SDS011;54562;47.620;18.786;2023-08-20T15:59:37;8.00;;;6.20;;
67757;SDS011;54562;47.620;18.786;2023-08-20T16:02:43;11.00;;;6.30;;
67757;SDS011;54562;47.620;18.786;2023-08-20T16:05:50;9.00;;;6.40;;
67757;SDS011;54562;47.620;18.786;2023-08-20T16:08:58;9.20;;;6.20;;
67757;SDS011;54562;47.620;18.786;2023-08-20T16:12:06;8.30;;;6.00;;
67757;SDS011;54562;47.620;18.786;2023-08-20T16:15:15;7.80;;;5.90;;
67757;SDS011;54562;47.620;18.786;2023-08-20T16:18:22;8.50;;;5.90;;
67757;SDS011;54562;47.620;18.786;2023-08-20T16:21:28;7.90;;;6.00;;
67757;SDS011;54562;47.620;18.786;2023-08-20T16:24:35;17.40;;;6.50;;
67757;SDS011;54562;47.620;18.786;2023-08-20T16:27:41;11.60;;;6.00;;
67757;SDS011;54562;47.620;18.786;2023-08-20T16:30:47;10.90;;;6.30;;
67757;SDS011;54562;47.620;18.786;2023-08-20T16:33:55;7.60;;;5.90;;
67757;SDS011;54562;47.620;18.786;2023-08-20T16:37:01;11.30;;;6.30;;
67757;SDS011;54562;47.620;18.786;2023-08-20T16:40:10;8.40;;;6.40;;
67757;SDS011;54562;47.620;18.786;2023-08-20T16:43:25;12.30;;;6.50;;
67757;SDS011;54562;47.620;18.786;2023-08-20T16:46:31;14.50;;;6.90;;
67757;SDS011;54562;47.620;18.786;2023-08-20T16:49:38;8.50;;;6.40;;
67757;SDS011;54562;47.620;18.786;2023-08-20T16:52:45;7.90;;;6.30;;
67757;SDS011;54562;47.620;18.786;2023-08-20T16:55:52;9.30;;;6.60;;
67757;SDS011;54562;47.620;18.786;2023-08-20T16:58:58;10.20;;;6.60;;
67757;SDS011;54562;47.620;18.786;2023-08-20T17:02:05;10.50;;;6.60;;
67757;SDS011;54562;47.620;18.786;2023-08-20T17:05:12;8.20;;;6.30;;
67757;SDS011;54562;47.620;18.786;2023-08-20T17:08:18;9.00;;;6.60;;
67757;SDS011;54562;47.620;18.786;2023-08-20T17:11:25;8.80;;;6.40;;
67757;SDS011;54562;47.620;18.786;2023-08-20T17:14:32;9.10;;;6.80;;
67757;SDS011;54562;47.620;18.786;2023-08-20T17:17:39;9.50;;;7.00;;
67757;SDS011;54562;47.620;18.786;2023-08-20T17:20:45;8.60;;;6.60;;
67757;SDS011;54562;47.620;18.786;2023-08-20T17:23:52;9.10;;;6.40;;
67757;SDS011;54562;47.620;18.786;2023-08-20T17:26:58;8.70;;;6.60;;
67757;SDS011;54562;47.620;18.786;2023-08-20T17:30:06;9.00;;;6.40;;
67757;SDS011;54562;47.620;18.786;2023-08-20T17:33:15;10.40;;;7.20;;
67757;SDS011;54562;47.620;18.786;2023-08-20T17:36:22;10.30;;;6.80;;
67757;SDS011;54562;47.620;18.786;2023-08-20T17:39:28;10.40;;;6.50;;
67757;SDS011;54562;47.620;18.786;2023-08-20T17:42:36;9.30;;;6.80;;
67757;SDS011;54562;47.620;18.786;2023-08-20T17:45:43;10.10;;;7.00;;
67757;SDS011;54562;47.620;18.786;2023-08-20T17:48:49;11.00;;;6.50;;
67757;SDS011;54562;47.620;18.786;2023-08-20T17:51:56;9.40;;;6.80;;
67757;SDS011;54562;47.620;18.786;2023-08-20T17:55:02;11.20;;;7.10;;
67757;SDS011;54562;47.620;18.786;2023-08-20T17:58:10;11.70;;;7.20;;
67757;SDS011;54562;47.620;18.786;2023-08-20T18:01:16;12.10;;;7.20;;
67757;SDS011;54562;47.620;18.786;2023-08-20T18:04:23;12.60;;;7.70;;
67757;SDS011;54562;47.620;18.786;2023-08-20T18:07:29;13.20;;;7.50;;
67757;SDS011;54562;47.620;18.786;2023-08-20T18:10:36;13.10;;;7.70;;
67757;SDS011;54562;47.620;18.786;2023-08-20T18:13:42;14.40;;;7.60;;
67757;SDS011;54562;47.620;18.786;2023-08-20T18:16:48;16.30;;;7.60;;
67757;SDS011;54562;47.620;18.786;2023-08-20T18:19:55;10.00;;;7.80;;
67757;SDS011;54562;47.620;18.786;2023-08-20T18:23:01;11.30;;;7.30;;